createdAt,value
2019-03-06T00:00:47.214Z,1.52
2019-03-06T00:03:15.882Z,1.72
2019-03-06T00:05:44.515Z,1.95
2019-03-06T00:08:13.140Z,2.98
2019-03-06T00:10:41.811Z,2.25
2019-03-06T00:13:10.640Z,1.32
2019-03-06T00:15:39.279Z,2.42
2019-03-06T00:18:07.892Z,6.20
2019-03-06T00:20:36.589Z,1.80
2019-03-06T00:23:05.218Z,2.62
2019-03-06T00:25:33.808Z,1.65
2019-03-06T00:28:02.533Z,1.80
2019-03-06T00:30:31.160Z,3.20
2019-03-06T00:32:59.653Z,4.90
2019-03-06T00:35:39.134Z,3.45
2019-03-06T00:38:07.767Z,8.10
2019-03-06T00:40:44.666Z,6.97
2019-03-06T00:43:13.220Z,7.45
2019-03-06T00:45:41.842Z,6.78
2019-03-06T00:48:10.513Z,7.90
2019-03-06T00:50:39.138Z,8.15
2019-03-06T00:53:07.633Z,6.05
2019-03-06T00:55:36.167Z,5.15
2019-03-06T00:58:04.796Z,4.03
2019-03-06T01:00:33.421Z,1.40
2019-03-06T01:03:02.103Z,1.12
2019-03-06T01:05:30.711Z,1.50
2019-03-06T01:07:59.271Z,3.22
2019-03-06T01:10:27.794Z,2.62
2019-03-06T01:12:56.427Z,1.62
2019-03-06T01:15:25.143Z,2.67
2019-03-06T01:17:53.822Z,2.98
2019-03-06T01:20:22.376Z,2.50
2019-03-06T01:22:51.001Z,2.77
2019-03-06T01:25:20.862Z,2.50
2019-03-06T01:27:49.422Z,3.55
2019-03-06T01:30:24.852Z,3.10
2019-03-06T01:33:11.237Z,3.05
2019-03-06T01:35:44.529Z,3.20
2019-03-06T01:38:31.349Z,2.87
2019-03-06T01:41:04.395Z,3.40
2019-03-06T01:43:34.591Z,3.17
2019-03-06T01:46:03.218Z,3.67
2019-03-06T01:48:31.895Z,3.47
2019-03-06T01:51:00.529Z,3.55
2019-03-06T01:53:29.102Z,5.42
2019-03-06T01:55:57.691Z,4.35
2019-03-06T01:58:26.431Z,4.08
2019-03-06T02:00:55.339Z,4.50
2019-03-06T02:03:23.940Z,4.55
2019-03-06T02:05:52.508Z,5.75
2019-03-06T02:08:21.134Z,4.47
2019-03-06T02:10:50.011Z,4.28
2019-03-06T02:13:21.551Z,3.90
2019-03-06T02:15:50.216Z,4.78
2019-03-06T02:18:18.893Z,3.95
2019-03-06T02:20:47.752Z,4.37
2019-03-06T02:23:16.393Z,7.87
2019-03-06T02:25:45.055Z,5.92
2019-03-06T02:28:13.576Z,5.20
2019-03-06T02:30:42.286Z,5.60
2019-03-06T02:33:10.938Z,5.95
2019-03-06T02:35:39.648Z,4.75
2019-03-06T02:38:08.147Z,6.62
2019-03-06T02:40:36.673Z,5.53
2019-03-06T02:43:05.301Z,6.80
2019-03-06T02:45:33.927Z,6.45
2019-03-06T02:48:02.536Z,6.67
2019-03-06T02:50:31.095Z,7.97
2019-03-06T02:52:59.783Z,6.28
2019-03-06T02:55:28.465Z,8.10
2019-03-06T02:58:01.325Z,6.95
2019-03-06T03:00:31.603Z,8.10
2019-03-06T03:03:04.461Z,7.03
2019-03-06T03:05:34.596Z,8.93
2019-03-06T03:08:03.430Z,7.90
2019-03-06T03:10:32.124Z,8.40
2019-03-06T03:13:00.981Z,7.05
2019-03-06T03:15:29.549Z,7.78
2019-03-06T03:17:58.209Z,8.23
2019-03-06T03:20:26.837Z,8.53
2019-03-06T03:22:55.400Z,7.60
2019-03-06T03:25:24.086Z,9.87
2019-03-06T03:27:52.711Z,8.18
2019-03-06T03:30:21.446Z,7.85
2019-03-06T03:32:49.975Z,7.62
2019-03-06T03:35:18.608Z,11.10
2019-03-06T03:37:47.271Z,6.92
2019-03-06T03:40:16.503Z,7.58
2019-03-06T03:42:45.130Z,7.95
2019-03-06T03:45:15.678Z,9.65
2019-03-06T03:47:44.356Z,8.35
2019-03-06T03:50:13.186Z,7.78
2019-03-06T03:52:42.097Z,7.85
2019-03-06T03:55:13.059Z,9.05
2019-03-06T03:57:41.624Z,6.85
2019-03-06T04:00:15.257Z,9.50
2019-03-06T04:02:43.925Z,8.98
2019-03-06T04:05:13.054Z,7.30
2019-03-06T04:07:41.556Z,8.95
2019-03-06T04:10:14.774Z,7.42
2019-03-06T04:12:43.409Z,7.62
2019-03-06T04:15:18.623Z,9.23
2019-03-06T04:17:47.298Z,8.53
2019-03-06T04:20:16.942Z,8.68
2019-03-06T04:22:45.634Z,8.43
2019-03-06T04:25:14.368Z,7.58
2019-03-06T04:27:42.964Z,7.45
2019-03-06T04:30:13.869Z,8.25
2019-03-06T04:32:45.384Z,8.20
2019-03-06T04:35:14.462Z,7.78
2019-03-06T04:37:43.021Z,6.80
2019-03-06T04:40:13.900Z,8.23
2019-03-06T04:42:42.575Z,8.73
2019-03-06T04:45:13.681Z,8.05
2019-03-06T04:47:42.239Z,5.62
2019-03-06T04:50:12.213Z,9.00
2019-03-06T04:52:41.320Z,8.60
2019-03-06T04:55:11.250Z,8.30
2019-03-06T04:57:39.780Z,9.70
2019-03-06T05:00:16.933Z,7.58
2019-03-06T05:02:45.531Z,9.38
2019-03-06T05:05:14.156Z,9.03
2019-03-06T05:07:42.794Z,12.13
2019-03-06T05:10:15.235Z,10.48
2019-03-06T05:12:43.806Z,11.85
2019-03-06T05:15:24.012Z,12.03
2019-03-06T05:17:54.278Z,9.00
2019-03-06T05:20:22.919Z,10.15
2019-03-06T05:22:51.519Z,10.98
2019-03-06T05:25:20.015Z,11.05
2019-03-06T05:27:48.701Z,11.20
2019-03-06T05:30:19.156Z,13.60
2019-03-06T05:32:53.767Z,13.68
2019-03-06T05:35:49.718Z,9.23
2019-03-06T05:38:27.502Z,11.08
2019-03-06T05:40:56.102Z,12.98
2019-03-06T05:43:24.750Z,17.23
2019-03-06T05:45:53.376Z,11.45
2019-03-06T05:48:21.923Z,13.85
2019-03-06T05:50:50.486Z,10.50
2019-03-06T05:53:19.114Z,11.08
2019-03-06T05:55:47.785Z,13.85
2019-03-06T05:58:16.281Z,12.07
2019-03-06T06:00:44.784Z,10.13
2019-03-06T06:03:13.480Z,11.38
2019-03-06T06:05:42.110Z,11.30
2019-03-06T06:08:10.598Z,10.98
2019-03-06T06:10:39.151Z,12.18
2019-03-06T06:13:07.792Z,11.33
2019-03-06T06:15:36.414Z,9.83
2019-03-06T06:18:05.092Z,8.75
2019-03-06T06:20:33.721Z,10.20
2019-03-06T06:23:12.937Z,10.93
2019-03-06T06:25:41.426Z,10.75
2019-03-06T06:28:10.063Z,10.38
2019-03-06T06:30:38.730Z,12.10
2019-03-06T06:33:07.569Z,11.12
2019-03-06T06:35:36.050Z,9.35
2019-03-06T06:38:04.766Z,12.28
2019-03-06T06:40:33.353Z,11.40
2019-03-06T06:43:01.857Z,12.82
2019-03-06T06:45:30.419Z,12.37
2019-03-06T06:48:13.125Z,10.50
2019-03-06T06:51:01.260Z,11.97
2019-03-06T06:53:42.317Z,12.88
2019-03-06T06:56:47.588Z,7.62
2019-03-06T06:59:41.732Z,15.68
2019-03-06T07:02:32.575Z,11.20
2019-03-06T07:05:24.484Z,11.38
2019-03-06T07:08:11.051Z,16.57
2019-03-06T07:10:57.297Z,13.78
2019-03-06T07:13:30.497Z,13.10
2019-03-06T07:16:00.767Z,13.60
2019-03-06T07:18:31.037Z,12.45
2019-03-06T07:21:04.377Z,15.35
2019-03-06T07:23:37.208Z,16.37
2019-03-06T07:26:13.549Z,17.73
2019-03-06T07:28:46.765Z,16.50
2019-03-06T07:31:17.042Z,18.25
2019-03-06T07:33:52.906Z,19.32
2019-03-06T07:36:39.374Z,14.75
2019-03-06T07:39:10.522Z,15.20
2019-03-06T07:41:40.661Z,14.78
2019-03-06T07:44:10.942Z,23.57
2019-03-06T07:46:53.011Z,20.45
2019-03-06T07:49:26.177Z,16.42
2019-03-06T07:51:59.430Z,20.37
2019-03-06T07:54:29.710Z,13.75
2019-03-06T07:57:12.000Z,18.07
2019-03-06T07:59:40.640Z,27.00
2019-03-06T08:02:23.750Z,14.98
2019-03-06T08:04:54.083Z,19.82
2019-03-06T08:07:22.655Z,27.58
2019-03-06T08:09:51.701Z,27.25
2019-03-06T08:12:34.066Z,21.15
2019-03-06T08:15:20.911Z,27.70
2019-03-06T08:17:53.787Z,28.07
2019-03-06T08:20:30.103Z,21.00
2019-03-06T08:23:16.633Z,22.40
2019-03-06T08:25:44.491Z,20.23
2019-03-06T08:28:13.503Z,30.27
2019-03-06T08:30:46.925Z,29.10
2019-03-06T08:33:18.533Z,33.63
2019-03-06T08:35:46.000Z,32.38
2019-03-06T08:38:14.636Z,29.80
2019-03-06T08:40:43.309Z,29.63
2019-03-06T08:43:11.892Z,28.73
2019-03-06T08:45:58.307Z,32.35
2019-03-06T08:48:34.473Z,35.68
2019-03-06T08:51:07.773Z,30.00
2019-03-06T08:53:54.337Z,26.37
2019-03-06T08:56:24.597Z,29.18
2019-03-06T08:59:09.933Z,29.98
2019-03-06T09:01:40.249Z,44.90
2019-03-06T09:04:11.353Z,34.27
2019-03-06T09:06:42.722Z,28.92
2019-03-06T09:09:25.454Z,27.93
2019-03-06T09:12:10.762Z,25.43
2019-03-06T09:14:59.269Z,24.50
2019-03-06T09:17:48.992Z,20.48
2019-03-06T09:20:24.768Z,27.98
2019-03-06T09:23:07.148Z,30.00
2019-03-06T09:25:53.964Z,20.37
2019-03-06T09:28:26.928Z,18.77
2019-03-06T09:30:57.071Z,18.55
2019-03-06T09:33:27.299Z,22.37
2019-03-06T09:36:14.036Z,15.53
2019-03-06T09:38:50.365Z,20.97
2019-03-06T09:41:29.367Z,24.12
2019-03-06T09:44:02.342Z,31.82
2019-03-06T09:46:38.690Z,21.85
2019-03-06T09:49:14.749Z,22.95
2019-03-06T09:51:44.979Z,26.40
2019-03-06T09:54:24.451Z,18.62
2019-03-06T09:56:54.745Z,20.40
2019-03-06T09:59:25.061Z,45.28
2019-03-06T10:02:07.013Z,38.35
2019-03-06T10:04:50.963Z,29.55
2019-03-06T10:07:33.171Z,23.15
2019-03-06T10:10:15.489Z,29.60
2019-03-06T10:12:54.808Z,38.00
2019-03-06T10:15:43.483Z,17.65
2019-03-06T10:18:20.071Z,21.40
2019-03-06T10:20:57.910Z,5.65
2019-03-06T10:23:26.605Z,28.60
2019-03-06T10:25:55.180Z,16.48
2019-03-06T10:28:27.784Z,23.32
2019-03-06T10:31:02.132Z,10.28
2019-03-06T10:33:24.534Z,8.75
2019-03-06T10:35:53.689Z,32.35
2019-03-06T10:38:22.187Z,22.67
2019-03-06T10:40:50.681Z,7.85
2019-03-06T10:43:19.357Z,16.85
2019-03-06T10:45:47.986Z,18.92
2019-03-06T10:48:16.617Z,9.00
2019-03-06T10:50:45.294Z,10.15
2019-03-06T10:53:13.948Z,6.53
2019-03-06T10:55:42.584Z,12.05
2019-03-06T10:58:11.261Z,12.88
2019-03-06T11:00:48.216Z,15.63
2019-03-06T11:03:16.878Z,6.08
2019-03-06T11:05:45.755Z,11.53
2019-03-06T11:08:14.993Z,5.65
2019-03-06T11:10:43.777Z,4.37
2019-03-06T11:13:12.911Z,12.95
2019-03-06T11:15:41.994Z,10.28
2019-03-06T11:18:11.197Z,3.85
2019-03-06T11:20:40.837Z,3.83
2019-03-06T11:23:11.112Z,2.70
2019-03-06T11:25:40.789Z,4.03
2019-03-06T11:28:14.284Z,1.57
2019-03-06T11:30:48.782Z,11.53
2019-03-06T11:33:18.912Z,5.22
2019-03-06T11:35:48.256Z,12.10
2019-03-06T11:38:17.033Z,5.15
2019-03-06T11:40:45.869Z,4.67
2019-03-06T11:43:14.600Z,8.28
2019-03-06T11:45:43.872Z,3.62
2019-03-06T11:48:13.199Z,9.10
2019-03-06T11:50:41.831Z,2.62
2019-03-06T11:53:10.708Z,5.03
2019-03-06T11:55:39.440Z,1.00
2019-03-06T11:58:10.609Z,4.08
2019-03-06T12:00:46.488Z,18.00
2019-03-06T12:03:17.655Z,1.27
2019-03-06T12:05:47.081Z,1.95
2019-03-06T12:08:18.174Z,2.60
2019-03-06T12:10:47.304Z,0.95
2019-03-06T12:13:17.437Z,3.35
2019-03-06T12:15:51.386Z,2.42
2019-03-06T12:18:22.846Z,1.20
2019-03-06T12:20:51.571Z,3.25
2019-03-06T12:23:20.482Z,1.92
2019-03-06T12:25:49.206Z,8.45
2019-03-06T12:28:18.147Z,1.37
2019-03-06T12:30:47.183Z,3.47
2019-03-06T12:33:21.427Z,4.00
2019-03-06T12:35:50.155Z,0.93
2019-03-06T12:38:20.256Z,1.42
2019-03-06T12:40:49.130Z,1.70
2019-03-06T12:43:17.789Z,2.05
2019-03-06T12:46:12.166Z,6.47
2019-03-06T12:48:40.796Z,2.37
2019-03-06T12:51:09.425Z,2.05
2019-03-06T12:53:38.024Z,2.25
2019-03-06T12:56:06.933Z,2.80
2019-03-06T12:58:35.562Z,2.42
2019-03-06T13:01:04.988Z,3.10
2019-03-06T13:03:33.553Z,3.45
2019-03-06T13:06:02.118Z,3.60
2019-03-06T13:08:30.792Z,1.70
2019-03-06T13:10:59.534Z,1.95
2019-03-06T13:13:35.440Z,3.52
2019-03-06T13:15:58.604Z,1.30
2019-03-06T13:18:28.034Z,2.30
2019-03-06T13:20:56.616Z,0.78
2019-03-06T13:23:25.463Z,0.60
2019-03-06T13:25:54.379Z,2.37
2019-03-06T13:28:23.022Z,1.47
2019-03-06T13:30:51.632Z,0.30
2019-03-06T13:33:30.926Z,1.65
2019-03-06T13:35:59.608Z,2.98
2019-03-06T13:38:28.275Z,1.15
2019-03-06T13:40:56.839Z,3.77
2019-03-06T13:43:25.519Z,2.65
2019-03-06T13:45:54.152Z,1.40
2019-03-06T13:48:22.721Z,0.72
2019-03-06T13:50:51.420Z,4.83
2019-03-06T13:53:20.747Z,2.25
2019-03-06T13:55:49.451Z,3.50
2019-03-06T13:58:18.921Z,2.77
2019-03-06T14:00:47.551Z,0.55
2019-03-06T14:03:16.129Z,2.85
2019-03-06T14:05:44.814Z,2.10
2019-03-06T14:08:13.428Z,2.58
2019-03-06T14:10:41.988Z,2.25
2019-03-06T14:13:10.524Z,2.45
2019-03-06T14:15:39.155Z,2.22
2019-03-06T14:18:11.399Z,4.17
2019-03-06T14:20:40.108Z,5.72
2019-03-06T14:23:08.946Z,13.10
2019-03-06T14:25:37.606Z,3.85
2019-03-06T14:28:06.587Z,0.50
2019-03-06T14:30:37.424Z,7.08
2019-03-06T14:33:06.154Z,0.50
2019-03-06T14:35:34.998Z,3.95
2019-03-06T14:38:04.504Z,1.00
2019-03-06T14:40:34.043Z,3.85
2019-03-06T14:43:04.971Z,0.60
2019-03-06T14:45:33.603Z,2.35
2019-03-06T14:48:02.337Z,6.83
2019-03-06T14:50:31.002Z,3.42
2019-03-06T14:52:59.812Z,1.22
2019-03-06T14:55:28.442Z,3.10
2019-03-06T14:57:57.164Z,3.30
2019-03-06T15:00:25.735Z,3.10
2019-03-06T15:02:54.375Z,3.67
2019-03-06T15:05:23.538Z,3.02
2019-03-06T15:07:52.379Z,2.65
2019-03-06T15:10:21.506Z,1.98
2019-03-06T15:12:50.184Z,3.10
2019-03-06T15:15:20.901Z,5.42
2019-03-06T15:17:49.564Z,2.58
2019-03-06T15:20:24.033Z,2.45
2019-03-06T15:22:54.172Z,2.05
2019-03-06T15:25:24.896Z,2.90
2019-03-06T15:27:53.670Z,1.27
2019-03-06T15:30:22.676Z,1.80
2019-03-06T15:32:51.301Z,4.37
2019-03-06T15:35:20.551Z,9.15
2019-03-06T15:37:49.388Z,0.95
2019-03-06T15:40:22.355Z,2.05
2019-03-06T15:42:51.320Z,1.25
2019-03-06T15:45:21.727Z,4.58
2019-03-06T15:47:50.456Z,0.85
2019-03-06T15:50:19.418Z,7.90
2019-03-06T15:52:48.148Z,4.87
2019-03-06T15:55:19.692Z,10.58
2019-03-06T15:57:48.570Z,4.42
2019-03-06T16:00:24.218Z,1.72
2019-03-06T16:02:52.889Z,19.15
2019-03-06T16:05:21.684Z,8.98
2019-03-06T16:07:50.316Z,3.95
2019-03-06T16:10:19.055Z,2.27
2019-03-06T16:12:48.723Z,4.53
2019-03-06T16:15:17.351Z,5.85
2019-03-06T16:17:46.026Z,9.18
2019-03-06T16:20:17.384Z,5.47
2019-03-06T16:22:46.592Z,8.25
2019-03-06T16:25:15.617Z,6.00
2019-03-06T16:27:44.484Z,9.90
2019-03-06T16:30:21.912Z,10.00
2019-03-06T16:32:50.770Z,6.67
2019-03-06T16:35:19.483Z,9.95
2019-03-06T16:37:48.212Z,4.28
2019-03-06T16:42:55.137Z,8.13
2019-03-06T16:45:30.983Z,10.82
2019-03-06T16:48:00.556Z,10.35
2019-03-06T16:50:29.200Z,13.75
2019-03-06T16:52:58.095Z,9.63
2019-03-06T16:55:27.752Z,12.53
2019-03-06T16:57:57.371Z,15.08
2019-03-06T17:00:33.617Z,12.05
2019-03-06T17:03:06.247Z,15.45
2019-03-06T17:05:35.464Z,20.55
2019-03-06T17:08:05.199Z,22.75
2019-03-06T17:10:38.692Z,19.82
2019-03-06T17:13:07.529Z,29.00
2019-03-06T17:15:36.338Z,31.57
2019-03-06T17:18:11.054Z,36.88
2019-03-06T17:20:39.686Z,31.37
2019-03-06T17:23:08.363Z,26.15
2019-03-06T17:25:37.027Z,22.07
2019-03-06T17:28:06.139Z,26.60
2019-03-06T17:30:35.885Z,24.07
2019-03-06T17:33:10.192Z,20.30
2019-03-06T17:35:39.391Z,18.17
2019-03-06T17:38:11.040Z,17.67
2019-03-06T17:40:40.145Z,21.75
2019-03-06T17:43:09.200Z,14.07
2019-03-06T17:45:38.133Z,11.57
2019-03-06T17:48:07.968Z,23.83
2019-03-06T17:50:39.597Z,24.02
2019-03-06T17:53:08.530Z,24.43
2019-03-06T17:55:37.235Z,19.85
2019-03-06T17:58:05.866Z,28.23
2019-03-06T18:00:45.931Z,24.23
2019-03-06T18:03:16.191Z,31.52
2019-03-06T18:05:44.993Z,27.17
2019-03-06T18:08:13.699Z,28.90
2019-03-06T18:10:42.537Z,29.48
2019-03-06T18:13:11.648Z,38.28
2019-03-06T18:15:40.318Z,34.43
2019-03-06T18:18:08.948Z,31.15
2019-03-06T18:20:37.647Z,28.65
2019-03-06T18:23:06.325Z,30.27
2019-03-06T18:25:34.959Z,43.05
2019-03-06T18:28:03.672Z,45.98
2019-03-06T18:30:32.484Z,31.17
2019-03-06T18:33:01.049Z,51.25
2019-03-06T18:35:29.967Z,45.00
2019-03-06T18:37:58.707Z,47.67
2019-03-06T18:40:27.816Z,23.10
2019-03-06T18:42:56.452Z,33.08
2019-03-06T18:45:25.212Z,25.65
2019-03-06T18:47:53.851Z,20.15
2019-03-06T18:50:23.650Z,14.60
2019-03-06T18:52:52.579Z,16.93
2019-03-06T18:55:24.004Z,18.90
2019-03-06T18:57:52.719Z,13.00
2019-03-06T19:00:25.539Z,24.27
2019-03-06T19:02:54.266Z,16.45
2019-03-06T19:05:23.065Z,9.53
2019-03-06T19:07:52.326Z,14.87
2019-03-06T19:10:22.276Z,13.70
2019-03-06T19:12:51.257Z,34.70
2019-03-06T19:15:24.688Z,22.13
2019-03-06T19:17:53.423Z,23.27
2019-03-06T19:20:22.644Z,19.73
2019-03-06T19:22:54.986Z,35.65
2019-03-06T19:25:23.944Z,33.15
2019-03-06T19:27:52.648Z,17.98
2019-03-06T19:30:23.321Z,26.48
2019-03-06T19:33:09.999Z,17.60
2019-03-06T19:35:38.632Z,22.32
2019-03-06T19:38:07.513Z,14.85
2019-03-06T19:40:36.181Z,15.25
2019-03-06T19:43:05.070Z,14.18
2019-03-06T19:45:33.801Z,13.20
2019-03-06T19:48:02.432Z,11.80
2019-03-06T19:50:31.128Z,18.67
2019-03-06T19:52:59.805Z,15.38
2019-03-06T19:55:28.506Z,20.02
2019-03-06T19:57:59.114Z,23.12
2019-03-06T20:00:29.808Z,15.48
2019-03-06T20:02:59.107Z,18.75
2019-03-06T20:05:36.076Z,41.08
2019-03-06T20:08:07.910Z,31.62
2019-03-06T20:10:43.035Z,40.25
2019-03-06T20:13:12.367Z,38.42
2019-03-06T20:15:41.813Z,32.13
2019-03-06T20:18:10.957Z,37.17
2019-03-06T20:20:39.937Z,42.85
2019-03-06T20:23:08.770Z,33.73
2019-03-06T20:25:37.440Z,32.03
2019-03-06T20:28:06.237Z,29.02
2019-03-06T20:30:34.973Z,30.05
2019-03-06T20:33:03.901Z,27.45
2019-03-06T20:35:32.610Z,24.60
2019-03-06T20:38:01.844Z,24.32
2019-03-06T20:40:30.577Z,31.62
2019-03-06T20:42:59.210Z,27.35
2019-03-06T20:45:27.843Z,28.75
2019-03-06T20:47:56.608Z,26.05
2019-03-06T20:50:25.245Z,35.63
2019-03-06T20:52:54.085Z,44.48
2019-03-06T20:55:22.771Z,31.02
2019-03-06T20:57:51.742Z,35.23
2019-03-06T21:00:23.625Z,35.23
2019-03-06T21:02:52.371Z,32.20
2019-03-06T21:05:21.190Z,34.15
2019-03-06T21:07:49.923Z,34.23
2019-03-06T21:10:19.317Z,38.67
2019-03-06T21:12:47.945Z,38.98
2019-03-06T21:15:20.854Z,57.17
2019-03-06T21:17:49.578Z,67.45
2019-03-06T21:20:22.224Z,74.75
2019-03-06T21:22:50.953Z,82.97
2019-03-06T21:25:20.722Z,86.20
2019-03-06T21:27:49.635Z,81.70
2019-03-06T21:30:30.762Z,87.08
2019-03-06T21:32:59.460Z,70.40
2019-03-06T21:35:28.089Z,60.67
2019-03-06T21:37:56.701Z,59.05
2019-03-06T21:40:25.347Z,58.30
2019-03-06T21:42:53.998Z,55.43
2019-03-06T21:45:22.879Z,60.95
2019-03-06T21:47:51.590Z,63.92
2019-03-06T21:50:20.713Z,63.83
2019-03-06T21:52:49.324Z,59.20
2019-03-06T21:55:18.253Z,65.65
2019-03-06T21:57:47.374Z,65.83
2019-03-06T22:00:23.761Z,67.62
2019-03-06T22:02:52.463Z,64.82
2019-03-06T22:05:21.205Z,73.95
2019-03-06T22:07:50.773Z,69.30
2019-03-06T22:10:20.039Z,73.37
2019-03-06T22:12:48.608Z,75.85
2019-03-06T22:15:21.998Z,82.95
2019-03-06T22:17:50.632Z,81.22
2019-03-06T22:20:22.126Z,87.40
2019-03-06T22:22:50.675Z,85.90
2019-03-06T22:25:19.497Z,83.87
2019-03-06T22:27:48.269Z,95.35
2019-03-06T22:30:22.835Z,84.62
2019-03-06T22:32:52.017Z,86.67
2019-03-06T22:35:20.781Z,80.95
2019-03-06T22:37:49.390Z,75.05
2019-03-06T22:40:19.504Z,89.28
2019-03-06T22:42:48.481Z,99.13
2019-03-06T22:45:18.715Z,89.47
2019-03-06T22:47:47.352Z,87.78
2019-03-06T22:50:17.029Z,80.45
2019-03-06T22:52:48.637Z,99.55
2019-03-06T22:55:18.372Z,88.67
2019-03-06T22:57:47.036Z,87.30
2019-03-06T23:00:30.635Z,77.87
2019-03-06T23:02:59.370Z,86.30
2019-03-06T23:05:29.794Z,95.97
2019-03-06T23:07:58.389Z,101.58
2019-03-06T23:10:27.108Z,96.70
2019-03-06T23:12:55.591Z,90.03
2019-03-06T23:15:24.273Z,93.97
2019-03-06T23:17:52.911Z,88.12
2019-03-06T23:20:21.555Z,93.10
2019-03-06T23:22:50.102Z,92.97
2019-03-06T23:25:18.662Z,87.88
2019-03-06T23:27:47.292Z,91.45
2019-03-06T23:30:16.971Z,88.67
2019-03-06T23:32:45.711Z,91.57
2019-03-06T23:35:14.293Z,86.32
2019-03-06T23:37:42.956Z,71.42
2019-03-06T23:40:12.197Z,86.20
2019-03-06T23:42:40.827Z,90.10
2019-03-06T23:45:13.405Z,81.20
2019-03-06T23:47:42.226Z,81.75
2019-03-06T23:50:12.262Z,74.22
2019-03-06T23:52:59.053Z,74.80
2019-03-06T23:55:29.435Z,69.37
2019-03-06T23:57:58.346Z,67.58
